createdAt,value
2019-06-08T17:39:10.635Z,33.40
2019-06-08T17:42:15.570Z,33.90
2019-06-08T17:45:21.065Z,33.40
2019-06-08T17:48:25.990Z,33.10
2019-06-08T17:51:31.002Z,32.50
2019-06-08T17:54:36.705Z,32.10
2019-06-08T17:57:51.410Z,31.90
2019-06-08T18:00:48.346Z,31.70
2019-06-08T18:03:53.268Z,31.60
2019-06-08T18:06:58.081Z,31.30
2019-06-08T18:10:02.586Z,31.10
2019-06-08T18:13:07.437Z,30.80
2019-06-08T18:16:12.402Z,30.70
2019-06-08T18:19:28.280Z,30.70
2019-06-08T18:22:32.782Z,30.40
2019-06-08T18:25:40.215Z,30.70
2019-06-08T18:28:45.969Z,32.50
2019-06-08T18:31:52.468Z,31.90
2019-06-08T18:34:57.427Z,31.90
2019-06-08T18:38:02.377Z,32.20
2019-06-08T18:41:08.270Z,32.40
2019-06-08T18:44:13.265Z,32.70
2019-06-08T18:47:18.196Z,32.90
2019-06-08T18:50:23.146Z,33.10
2019-06-08T18:53:28.049Z,33.50
2019-06-08T18:56:32.593Z,33.60
2019-06-08T18:59:41.840Z,33.80
2019-06-08T19:02:46.458Z,33.80
2019-06-08T19:05:52.144Z,34.20
2019-06-08T19:08:58.007Z,34.40
2019-06-08T19:12:02.886Z,34.50
2019-06-08T19:15:11.234Z,34.60
2019-06-08T19:18:14.097Z,34.20
2019-06-08T19:21:19.005Z,34.40
2019-06-08T19:24:23.841Z,34.30
2019-06-08T19:27:28.785Z,33.20
2019-06-08T19:30:33.620Z,32.70
2019-06-08T19:33:38.921Z,32.50
2019-06-08T19:36:45.707Z,32.40
2019-06-08T19:39:51.176Z,32.60
2019-06-08T19:43:00.062Z,32.20
2019-06-08T19:46:02.679Z,32.00
2019-06-08T19:49:07.995Z,31.80
2019-06-08T19:52:12.451Z,31.90
2019-06-08T19:55:18.071Z,31.90
2019-06-08T19:58:23.459Z,31.80
2019-06-08T20:01:28.429Z,32.10
2019-06-08T20:04:33.208Z,31.80
2019-06-08T20:07:38.108Z,31.80
2019-06-08T20:10:43.079Z,31.80
2019-06-08T20:13:50.017Z,31.80
2019-06-08T20:16:54.550Z,31.80
2019-06-08T20:19:59.292Z,31.80
2019-06-08T20:23:04.336Z,31.90
2019-06-08T20:26:09.168Z,31.90
2019-06-08T20:29:16.445Z,31.70
2019-06-08T20:32:20.436Z,31.90
2019-06-08T20:35:25.285Z,31.80
2019-06-08T20:38:37.750Z,31.80
2019-06-08T20:41:37.632Z,31.80
2019-06-08T20:44:42.546Z,31.80
2019-06-08T20:47:50.355Z,32.70
2019-06-08T20:50:57.204Z,32.10
2019-06-08T20:54:04.188Z,32.20
2019-06-08T20:57:10.591Z,32.20
2019-06-08T21:00:16.786Z,32.30
2019-06-08T21:03:22.369Z,32.30
2019-06-08T21:06:28.208Z,32.30
2019-06-08T21:09:34.249Z,32.30
2019-06-08T21:12:40.758Z,32.40
2019-06-08T21:15:52.089Z,32.40
2019-06-08T21:18:57.516Z,32.50
2019-06-08T21:22:03.034Z,32.60
2019-06-08T21:25:08.893Z,32.60
2019-06-08T21:28:17.064Z,32.70
2019-06-08T21:31:24.686Z,32.70
2019-06-08T21:34:30.575Z,32.80
2019-06-08T21:37:37.880Z,32.80
2019-06-08T21:40:44.125Z,32.70
2019-06-08T21:43:54.211Z,32.80
2019-06-08T21:47:01.212Z,32.80
2019-06-08T21:50:07.831Z,32.80
2019-06-08T21:53:18.098Z,32.90
2019-06-08T21:56:24.083Z,32.90
2019-06-08T21:59:29.841Z,32.90
2019-06-08T22:02:37.589Z,33.00
2019-06-08T22:05:44.196Z,33.00
2019-06-08T22:08:50.048Z,33.00
2019-06-08T22:11:58.743Z,33.10
2019-06-08T22:15:04.319Z,33.10
2019-06-08T22:18:09.775Z,33.10
2019-06-08T22:21:18.099Z,33.10
2019-06-08T22:24:23.402Z,33.20
2019-06-08T22:27:29.526Z,33.20
2019-06-08T22:30:42.536Z,33.30
2019-06-08T22:33:44.157Z,33.30
2019-06-08T22:36:52.575Z,33.30
2019-06-08T22:39:59.683Z,33.40
2019-06-08T22:43:07.820Z,33.40
2019-06-08T22:46:13.398Z,34.10
2019-06-08T22:49:18.708Z,33.40
2019-06-08T22:52:27.694Z,33.00
2019-06-08T22:55:35.477Z,33.50
2019-06-08T22:58:42.393Z,33.50
2019-06-08T23:01:49.686Z,33.60
2019-06-08T23:04:56.271Z,33.60
2019-06-08T23:08:04.400Z,33.60
2019-06-08T23:11:10.189Z,34.30
2019-06-08T23:14:18.018Z,33.70
2019-06-08T23:17:24.830Z,33.70
2019-06-08T23:20:30.983Z,33.80
2019-06-08T23:23:38.143Z,33.90
2019-06-08T23:26:43.926Z,34.10
2019-06-08T23:29:49.371Z,34.30
2019-06-08T23:32:54.315Z,34.40
2019-06-08T23:36:35.210Z,34.40
2019-06-08T23:39:07.564Z,34.40
2019-06-08T23:42:12.389Z,34.40
2019-06-08T23:45:17.726Z,34.40
2019-06-08T23:48:22.870Z,34.40
2019-06-08T23:51:27.703Z,34.40
2019-06-08T23:54:32.539Z,34.40
2019-06-08T23:57:38.045Z,34.40
